sensor_id;sensor_type;location;lat;lon;timestamp;pressure;altitude;pressure_sealevel;temperature;humidity
57600;BME280;43426;43.594;24.334;2023-12-20T00:01:17;101481.84;;;-2.50;100.00
57600;BME280;43426;43.594;24.334;2023-12-20T00:03:42;101476.34;;;-2.46;100.00
57600;BME280;43426;43.594;24.334;2023-12-20T00:06:07;101478.66;;;-2.38;100.00
57600;BME280;43426;43.594;24.334;2023-12-20T00:08:33;101474.28;;;-2.39;100.00
57600;BME280;43426;43.594;24.334;2023-12-20T00:10:58;101474.16;;;-2.36;100.00
57600;BME280;43426;43.594;24.334;2023-12-20T00:13:23;101467.44;;;-2.43;100.00
57600;BME280;43426;43.594;24.334;2023-12-20T00:15:49;101467.03;;;-2.34;100.00
57600;BME280;43426;43.594;24.334;2023-12-20T00:18:14;101470.84;;;-2.41;100.00
57600;BME280;43426;43.594;24.334;2023-12-20T00:20:39;101467.66;;;-2.48;100.00
57600;BME280;43426;43.594;24.334;2023-12-20T00:23:05;101460.56;;;-2.47;100.00
57600;BME280;43426;43.594;24.334;2023-12-20T00:25:30;101462.56;;;-2.52;100.00
57600;BME280;43426;43.594;24.334;2023-12-20T00:27:55;101459.06;;;-2.53;100.00
57600;BME280;43426;43.594;24.334;2023-12-20T00:30:21;101458.16;;;-2.52;100.00
57600;BME280;43426;43.594;24.334;2023-12-20T00:32:46;101459.84;;;-2.51;100.00
57600;BME280;43426;43.594;24.334;2023-12-20T00:35:15;101453.03;;;-2.57;100.00
57600;BME280;43426;43.594;24.334;2023-12-20T00:37:40;101448.66;;;-2.77;100.00
57600;BME280;43426;43.594;24.334;2023-12-20T00:40:06;101444.75;;;-2.88;100.00
57600;BME280;43426;43.594;24.334;2023-12-20T00:42:32;101444.16;;;-2.95;100.00
57600;BME280;43426;43.594;24.334;2023-12-20T00:44:58;101436.38;;;-2.78;100.00
57600;BME280;43426;43.594;24.334;2023-12-20T00:47:23;101431.41;;;-2.65;100.00
57600;BME280;43426;43.594;24.334;2023-12-20T00:49:49;101432.75;;;-2.75;100.00
57600;BME280;43426;43.594;24.334;2023-12-20T00:52:14;101427.00;;;-2.85;100.00
57600;BME280;43426;43.594;24.334;2023-12-20T00:54:42;101424.38;;;-2.85;100.00
57600;BME280;43426;43.594;24.334;2023-12-20T00:57:07;101426.94;;;-2.83;100.00
57600;BME280;43426;43.594;24.334;2023-12-20T00:59:32;101424.16;;;-2.80;100.00
57600;BME280;43426;43.594;24.334;2023-12-20T01:01:58;101418.22;;;-2.85;100.00
57600;BME280;43426;43.594;24.334;2023-12-20T01:04:23;101409.22;;;-2.81;100.00
57600;BME280;43426;43.594;24.334;2023-12-20T01:06:48;101411.03;;;-2.82;100.00
57600;BME280;43426;43.594;24.334;2023-12-20T01:09:14;101405.97;;;-2.86;100.00
57600;BME280;43426;43.594;24.334;2023-12-20T01:11:39;101405.53;;;-2.77;100.00
57600;BME280;43426;43.594;24.334;2023-12-20T01:14:05;101394.59;;;-2.88;100.00
57600;BME280;43426;43.594;24.334;2023-12-20T01:16:30;101400.78;;;-2.89;100.00
57600;BME280;43426;43.594;24.334;2023-12-20T01:18:55;101402.72;;;-2.93;100.00
57600;BME280;43426;43.594;24.334;2023-12-20T01:21:21;101403.16;;;-2.83;100.00
57600;BME280;43426;43.594;24.334;2023-12-20T01:23:46;101402.66;;;-2.92;100.00
57600;BME280;43426;43.594;24.334;2023-12-20T01:26:11;101393.41;;;-3.02;100.00
57600;BME280;43426;43.594;24.334;2023-12-20T01:28:37;101393.53;;;-3.05;100.00
57600;BME280;43426;43.594;24.334;2023-12-20T01:31:03;101391.97;;;-3.09;100.00
57600;BME280;43426;43.594;24.334;2023-12-20T01:33:29;101393.44;;;-3.22;100.00
57600;BME280;43426;43.594;24.334;2023-12-20T01:35:54;101384.63;;;-3.44;100.00
57600;BME280;43426;43.594;24.334;2023-12-20T01:38:19;101377.72;;;-3.46;100.00
57600;BME280;43426;43.594;24.334;2023-12-20T01:40:45;101369.69;;;-3.43;100.00
57600;BME280;43426;43.594;24.334;2023-12-20T01:43:10;101372.19;;;-3.40;100.00
57600;BME280;43426;43.594;24.334;2023-12-20T01:45:37;101364.00;;;-3.34;100.00
57600;BME280;43426;43.594;24.334;2023-12-20T01:48:02;101366.91;;;-3.40;100.00
57600;BME280;43426;43.594;24.334;2023-12-20T01:50:32;101359.97;;;-3.43;100.00
57600;BME280;43426;43.594;24.334;2023-12-20T01:53:00;101356.88;;;-3.32;100.00
57600;BME280;43426;43.594;24.334;2023-12-20T01:55:35;101354.63;;;-3.41;100.00
57600;BME280;43426;43.594;24.334;2023-12-20T01:58:01;101348.59;;;-3.43;100.00
57600;BME280;43426;43.594;24.334;2023-12-20T02:00:27;101344.47;;;-3.30;100.00
57600;BME280;43426;43.594;24.334;2023-12-20T02:02:54;101336.31;;;-3.23;100.00
57600;BME280;43426;43.594;24.334;2023-12-20T02:05:20;101330.72;;;-3.17;100.00
57600;BME280;43426;43.594;24.334;2023-12-20T02:07:46;101328.81;;;-3.14;100.00
57600;BME280;43426;43.594;24.334;2023-12-20T02:10:11;101318.84;;;-3.07;100.00
57600;BME280;43426;43.594;24.334;2023-12-20T02:12:36;101320.50;;;-3.04;100.00
57600;BME280;43426;43.594;24.334;2023-12-20T02:15:02;101318.31;;;-2.95;100.00
57600;BME280;43426;43.594;24.334;2023-12-20T02:17:27;101315.09;;;-3.01;100.00
57600;BME280;43426;43.594;24.334;2023-12-20T02:19:53;101312.69;;;-3.08;100.00
57600;BME280;43426;43.594;24.334;2023-12-20T02:22:18;101305.59;;;-3.05;100.00
57600;BME280;43426;43.594;24.334;2023-12-20T02:24:43;101302.56;;;-2.98;100.00
57600;BME280;43426;43.594;24.334;2023-12-20T02:27:09;101299.94;;;-2.98;100.00
57600;BME280;43426;43.594;24.334;2023-12-20T02:29:37;101295.88;;;-3.05;100.00
57600;BME280;43426;43.594;24.334;2023-12-20T02:32:05;101295.03;;;-3.05;100.00
57600;BME280;43426;43.594;24.334;2023-12-20T02:34:30;101296.03;;;-3.08;100.00
57600;BME280;43426;43.594;24.334;2023-12-20T02:36:55;101286.16;;;-3.23;100.00
57600;BME280;43426;43.594;24.334;2023-12-20T02:39:21;101281.88;;;-3.26;100.00
57600;BME280;43426;43.594;24.334;2023-12-20T02:41:47;101280.84;;;-3.43;100.00
57600;BME280;43426;43.594;24.334;2023-12-20T02:44:13;101283.16;;;-3.55;100.00
57600;BME280;43426;43.594;24.334;2023-12-20T02:46:38;101288.38;;;-3.54;100.00
57600;BME280;43426;43.594;24.334;2023-12-20T02:49:05;101279.63;;;-3.35;100.00
57600;BME280;43426;43.594;24.334;2023-12-20T02:51:31;101276.91;;;-3.34;100.00
57600;BME280;43426;43.594;24.334;2023-12-20T02:53:56;101274.16;;;-3.31;100.00
57600;BME280;43426;43.594;24.334;2023-12-20T02:56:21;101273.50;;;-3.36;100.00
57600;BME280;43426;43.594;24.334;2023-12-20T02:58:47;101268.16;;;-3.34;100.00
57600;BME280;43426;43.594;24.334;2023-12-20T03:01:12;101265.22;;;-3.28;100.00
57600;BME280;43426;43.594;24.334;2023-12-20T03:03:37;101262.81;;;-3.33;100.00
57600;BME280;43426;43.594;24.334;2023-12-20T03:06:03;101271.56;;;-3.51;100.00
57600;BME280;43426;43.594;24.334;2023-12-20T03:08:28;101265.91;;;-3.63;100.00
57600;BME280;43426;43.594;24.334;2023-12-20T03:10:54;101267.50;;;-3.60;100.00
57600;BME280;43426;43.594;24.334;2023-12-20T03:13:19;101259.22;;;-3.51;100.00
57600;BME280;43426;43.594;24.334;2023-12-20T03:15:45;101252.66;;;-3.42;100.00
57600;BME280;43426;43.594;24.334;2023-12-20T03:18:10;101252.94;;;-3.48;100.00
57600;BME280;43426;43.594;24.334;2023-12-20T03:20:36;101249.66;;;-3.53;100.00
57600;BME280;43426;43.594;24.334;2023-12-20T03:23:01;101243.53;;;-3.54;100.00
57600;BME280;43426;43.594;24.334;2023-12-20T03:25:26;101243.78;;;-3.60;100.00
57600;BME280;43426;43.594;24.334;2023-12-20T03:27:52;101240.97;;;-3.55;100.00
57600;BME280;43426;43.594;24.334;2023-12-20T03:30:17;101238.19;;;-3.52;100.00
57600;BME280;43426;43.594;24.334;2023-12-20T03:32:43;101236.75;;;-3.60;100.00
57600;BME280;43426;43.594;24.334;2023-12-20T03:35:08;101233.19;;;-3.58;100.00
57600;BME280;43426;43.594;24.334;2023-12-20T03:37:34;101226.34;;;-3.63;100.00
57600;BME280;43426;43.594;24.334;2023-12-20T03:39:59;101225.47;;;-3.63;100.00
57600;BME280;43426;43.594;24.334;2023-12-20T03:42:25;101226.59;;;-3.69;100.00
57600;BME280;43426;43.594;24.334;2023-12-20T03:44:50;101221.31;;;-3.69;100.00
57600;BME280;43426;43.594;24.334;2023-12-20T03:47:15;101223.19;;;-3.71;100.00
57600;BME280;43426;43.594;24.334;2023-12-20T03:49:41;101220.88;;;-3.79;100.00
57600;BME280;43426;43.594;24.334;2023-12-20T03:52:06;101215.66;;;-3.80;100.00
57600;BME280;43426;43.594;24.334;2023-12-20T03:54:32;101216.97;;;-3.70;100.00
57600;BME280;43426;43.594;24.334;2023-12-20T03:56:58;101217.75;;;-3.68;100.00
57600;BME280;43426;43.594;24.334;2023-12-20T03:59:23;101202.84;;;-3.69;100.00
57600;BME280;43426;43.594;24.334;2023-12-20T04:01:48;101207.88;;;-3.63;100.00
57600;BME280;43426;43.594;24.334;2023-12-20T04:04:14;101211.63;;;-3.68;100.00
57600;BME280;43426;43.594;24.334;2023-12-20T04:06:48;101210.22;;;-3.56;100.00
57600;BME280;43426;43.594;24.334;2023-12-20T04:09:13;101201.09;;;-3.49;100.00
57600;BME280;43426;43.594;24.334;2023-12-20T04:11:39;101200.25;;;-3.50;100.00
57600;BME280;43426;43.594;24.334;2023-12-20T04:14:04;101198.59;;;-3.52;100.00
57600;BME280;43426;43.594;24.334;2023-12-20T04:16:32;101191.63;;;-3.53;100.00
57600;BME280;43426;43.594;24.334;2023-12-20T04:19:00;101188.53;;;-3.63;100.00
57600;BME280;43426;43.594;24.334;2023-12-20T04:21:26;101194.25;;;-3.53;100.00
57600;BME280;43426;43.594;24.334;2023-12-20T04:23:51;101186.25;;;-3.52;100.00
57600;BME280;43426;43.594;24.334;2023-12-20T04:26:16;101197.31;;;-3.63;100.00
57600;BME280;43426;43.594;24.334;2023-12-20T04:28:42;101187.03;;;-3.69;100.00
57600;BME280;43426;43.594;24.334;2023-12-20T04:31:07;101182.00;;;-3.54;100.00
57600;BME280;43426;43.594;24.334;2023-12-20T04:33:33;101184.53;;;-3.72;100.00
57600;BME280;43426;43.594;24.334;2023-12-20T04:36:00;101180.09;;;-3.71;100.00
57600;BME280;43426;43.594;24.334;2023-12-20T04:38:26;101170.84;;;-3.80;100.00
57600;BME280;43426;43.594;24.334;2023-12-20T04:40:51;101176.78;;;-3.96;100.00
57600;BME280;43426;43.594;24.334;2023-12-20T04:43:19;101184.03;;;-4.01;100.00
57600;BME280;43426;43.594;24.334;2023-12-20T04:45:44;101178.16;;;-4.07;100.00
57600;BME280;43426;43.594;24.334;2023-12-20T04:48:09;101181.25;;;-4.18;100.00
57600;BME280;43426;43.594;24.334;2023-12-20T04:50:35;101174.03;;;-4.13;100.00
57600;BME280;43426;43.594;24.334;2023-12-20T04:53:00;101178.56;;;-4.17;100.00
57600;BME280;43426;43.594;24.334;2023-12-20T04:55:25;101181.00;;;-4.12;100.00
57600;BME280;43426;43.594;24.334;2023-12-20T04:57:51;101173.22;;;-3.95;100.00
57600;BME280;43426;43.594;24.334;2023-12-20T05:00:16;101175.19;;;-3.79;100.00
57600;BME280;43426;43.594;24.334;2023-12-20T05:02:42;101180.19;;;-3.73;100.00
57600;BME280;43426;43.594;24.334;2023-12-20T05:05:07;101171.44;;;-3.73;100.00
57600;BME280;43426;43.594;24.334;2023-12-20T05:07:33;101168.88;;;-3.75;100.00
57600;BME280;43426;43.594;24.334;2023-12-20T05:09:58;101154.94;;;-3.79;100.00
57600;BME280;43426;43.594;24.334;2023-12-20T05:12:24;101156.59;;;-3.76;100.00
57600;BME280;43426;43.594;24.334;2023-12-20T05:14:51;101157.25;;;-3.71;100.00
57600;BME280;43426;43.594;24.334;2023-12-20T05:17:17;101151.69;;;-3.65;100.00
57600;BME280;43426;43.594;24.334;2023-12-20T05:19:42;101153.69;;;-3.51;100.00
57600;BME280;43426;43.594;24.334;2023-12-20T05:22:07;101152.34;;;-3.60;100.00
57600;BME280;43426;43.594;24.334;2023-12-20T05:24:33;101152.59;;;-3.66;100.00
57600;BME280;43426;43.594;24.334;2023-12-20T05:26:58;101158.31;;;-3.75;100.00
57600;BME280;43426;43.594;24.334;2023-12-20T05:29:23;101150.97;;;-3.68;100.00
57600;BME280;43426;43.594;24.334;2023-12-20T05:31:49;101146.44;;;-3.85;100.00
57600;BME280;43426;43.594;24.334;2023-12-20T05:34:14;101139.81;;;-3.94;100.00
57600;BME280;43426;43.594;24.334;2023-12-20T05:36:39;101139.88;;;-3.96;100.00
57600;BME280;43426;43.594;24.334;2023-12-20T05:39:05;101141.47;;;-3.91;100.00
57600;BME280;43426;43.594;24.334;2023-12-20T05:41:30;101138.75;;;-3.90;100.00
57600;BME280;43426;43.594;24.334;2023-12-20T05:43:59;101130.03;;;-3.92;100.00
57600;BME280;43426;43.594;24.334;2023-12-20T05:46:24;101138.03;;;-3.94;100.00
57600;BME280;43426;43.594;24.334;2023-12-20T05:48:49;101132.59;;;-3.90;100.00
57600;BME280;43426;43.594;24.334;2023-12-20T05:51:16;101133.19;;;-4.03;100.00
57600;BME280;43426;43.594;24.334;2023-12-20T05:53:41;101129.59;;;-4.02;100.00
57600;BME280;43426;43.594;24.334;2023-12-20T05:56:07;101145.31;;;-3.99;100.00
57600;BME280;43426;43.594;24.334;2023-12-20T05:58:32;101129.06;;;-3.89;100.00
57600;BME280;43426;43.594;24.334;2023-12-20T06:00:58;101132.22;;;-3.81;100.00
57600;BME280;43426;43.594;24.334;2023-12-20T06:03:23;101126.88;;;-3.80;100.00
57600;BME280;43426;43.594;24.334;2023-12-20T06:05:49;101120.59;;;-3.77;100.00
57600;BME280;43426;43.594;24.334;2023-12-20T06:08:14;101118.13;;;-3.61;100.00
57600;BME280;43426;43.594;24.334;2023-12-20T06:10:39;101108.16;;;-3.54;100.00
57600;BME280;43426;43.594;24.334;2023-12-20T06:13:05;101101.75;;;-3.49;100.00
57600;BME280;43426;43.594;24.334;2023-12-20T06:15:31;101107.38;;;-3.37;100.00
57600;BME280;43426;43.594;24.334;2023-12-20T06:17:57;101103.56;;;-3.32;100.00
57600;BME280;43426;43.594;24.334;2023-12-20T06:20:22;101101.59;;;-3.27;100.00
57600;BME280;43426;43.594;24.334;2023-12-20T06:22:47;101107.56;;;-3.23;100.00
57600;BME280;43426;43.594;24.334;2023-12-20T06:25:13;101102.81;;;-2.97;100.00
57600;BME280;43426;43.594;24.334;2023-12-20T06:27:38;101108.56;;;-2.89;100.00
57600;BME280;43426;43.594;24.334;2023-12-20T06:30:06;101102.97;;;-2.83;100.00
57600;BME280;43426;43.594;24.334;2023-12-20T06:32:32;101098.69;;;-2.85;100.00
57600;BME280;43426;43.594;24.334;2023-12-20T06:34:59;101106.31;;;-2.79;100.00
57600;BME280;43426;43.594;24.334;2023-12-20T06:37:24;101099.03;;;-2.74;100.00
57600;BME280;43426;43.594;24.334;2023-12-20T06:39:53;101106.31;;;-2.62;100.00
57600;BME280;43426;43.594;24.334;2023-12-20T06:42:18;101092.72;;;-2.71;100.00
57600;BME280;43426;43.594;24.334;2023-12-20T06:44:43;101102.44;;;-2.72;100.00
57600;BME280;43426;43.594;24.334;2023-12-20T06:47:09;101090.81;;;-2.50;100.00
57600;BME280;43426;43.594;24.334;2023-12-20T06:49:34;101092.19;;;-2.43;100.00
57600;BME280;43426;43.594;24.334;2023-12-20T06:51:59;101089.47;;;-2.42;100.00
57600;BME280;43426;43.594;24.334;2023-12-20T06:54:25;101089.09;;;-2.34;100.00
57600;BME280;43426;43.594;24.334;2023-12-20T06:56:50;101089.84;;;-2.32;100.00
57600;BME280;43426;43.594;24.334;2023-12-20T06:59:15;101085.56;;;-2.17;100.00
57600;BME280;43426;43.594;24.334;2023-12-20T07:01:41;101087.19;;;-2.14;100.00
57600;BME280;43426;43.594;24.334;2023-12-20T07:04:06;101084.47;;;-2.13;100.00
57600;BME280;43426;43.594;24.334;2023-12-20T07:06:31;101088.41;;;-2.04;100.00
57600;BME280;43426;43.594;24.334;2023-12-20T07:08:57;101086.00;;;-2.09;100.00
57600;BME280;43426;43.594;24.334;2023-12-20T07:11:22;101088.59;;;-1.91;100.00
57600;BME280;43426;43.594;24.334;2023-12-20T07:13:48;101093.56;;;-1.85;100.00
57600;BME280;43426;43.594;24.334;2023-12-20T07:16:14;101082.16;;;-1.85;100.00
57600;BME280;43426;43.594;24.334;2023-12-20T07:18:40;101085.75;;;-1.71;100.00
57600;BME280;43426;43.594;24.334;2023-12-20T07:21:05;101082.34;;;-1.25;100.00
57600;BME280;43426;43.594;24.334;2023-12-20T07:23:33;101078.25;;;-1.14;100.00
57600;BME280;43426;43.594;24.334;2023-12-20T07:25:58;101086.69;;;-1.24;100.00
57600;BME280;43426;43.594;24.334;2023-12-20T07:28:23;101077.72;;;-1.05;100.00
57600;BME280;43426;43.594;24.334;2023-12-20T07:30:49;101072.59;;;-1.08;100.00
57600;BME280;43426;43.594;24.334;2023-12-20T07:33:15;101073.56;;;-1.09;100.00
57600;BME280;43426;43.594;24.334;2023-12-20T07:35:40;101077.22;;;-1.12;100.00
57600;BME280;43426;43.594;24.334;2023-12-20T07:38:05;101076.44;;;-0.98;100.00
57600;BME280;43426;43.594;24.334;2023-12-20T07:40:31;101074.59;;;-0.81;100.00
57600;BME280;43426;43.594;24.334;2023-12-20T07:42:57;101079.19;;;-0.69;100.00
57600;BME280;43426;43.594;24.334;2023-12-20T07:45:23;101076.13;;;-0.47;100.00
57600;BME280;43426;43.594;24.334;2023-12-20T07:47:48;101069.03;;;-0.32;100.00
57600;BME280;43426;43.594;24.334;2023-12-20T07:50:15;101058.63;;;-0.21;100.00
57600;BME280;43426;43.594;24.334;2023-12-20T07:52:40;101063.00;;;0.09;100.00
57600;BME280;43426;43.594;24.334;2023-12-20T07:55:06;101054.59;;;0.44;100.00
57600;BME280;43426;43.594;24.334;2023-12-20T07:57:31;101059.69;;;0.62;100.00
57600;BME280;43426;43.594;24.334;2023-12-20T07:59:56;101060.09;;;0.83;100.00
57600;BME280;43426;43.594;24.334;2023-12-20T08:02:22;101057.47;;;1.23;100.00
57600;BME280;43426;43.594;24.334;2023-12-20T08:04:47;101055.97;;;1.19;100.00
57600;BME280;43426;43.594;24.334;2023-12-20T08:07:12;101050.47;;;1.35;100.00
57600;BME280;43426;43.594;24.334;2023-12-20T08:09:38;101055.19;;;1.57;100.00
57600;BME280;43426;43.594;24.334;2023-12-20T08:12:03;101047.63;;;1.90;100.00
57600;BME280;43426;43.594;24.334;2023-12-20T08:14:29;101040.47;;;2.16;100.00
57600;BME280;43426;43.594;24.334;2023-12-20T08:16:54;101044.91;;;2.41;100.00
57600;BME280;43426;43.594;24.334;2023-12-20T08:19:19;101040.56;;;2.88;100.00
57600;BME280;43426;43.594;24.334;2023-12-20T08:21:45;101048.41;;;3.14;100.00
57600;BME280;43426;43.594;24.334;2023-12-20T08:24:10;101038.56;;;3.39;100.00
57600;BME280;43426;43.594;24.334;2023-12-20T08:26:35;101034.53;;;3.69;100.00
57600;BME280;43426;43.594;24.334;2023-12-20T08:29:00;101026.66;;;3.90;100.00
57600;BME280;43426;43.594;24.334;2023-12-20T08:31:26;101027.38;;;3.92;100.00
57600;BME280;43426;43.594;24.334;2023-12-20T08:33:51;101018.41;;;4.04;100.00
57600;BME280;43426;43.594;24.334;2023-12-20T08:36:18;101013.16;;;4.25;100.00
57600;BME280;43426;43.594;24.334;2023-12-20T08:38:44;101001.44;;;4.60;100.00
57600;BME280;43426;43.594;24.334;2023-12-20T08:41:10;101002.41;;;4.71;99.75
57600;BME280;43426;43.594;24.334;2023-12-20T08:43:35;101002.06;;;5.18;97.66
57600;BME280;43426;43.594;24.334;2023-12-20T08:46:01;100998.09;;;5.33;96.99
57600;BME280;43426;43.594;24.334;2023-12-20T08:48:26;100989.72;;;5.48;96.19
57600;BME280;43426;43.594;24.334;2023-12-20T08:50:51;100993.75;;;5.63;94.60
57600;BME280;43426;43.594;24.334;2023-12-20T08:53:17;100989.75;;;5.78;92.93
57600;BME280;43426;43.594;24.334;2023-12-20T08:55:43;100990.03;;;6.06;92.23
57600;BME280;43426;43.594;24.334;2023-12-20T08:58:08;100984.50;;;5.98;91.98
57600;BME280;43426;43.594;24.334;2023-12-20T09:00:34;100973.63;;;5.90;91.88
57600;BME280;43426;43.594;24.334;2023-12-20T09:02:59;100973.75;;;6.29;91.12
57600;BME280;43426;43.594;24.334;2023-12-20T09:05:24;100958.16;;;6.83;92.58
57600;BME280;43426;43.594;24.334;2023-12-20T09:07:50;100957.66;;;7.46;88.87
57600;BME280;43426;43.594;24.334;2023-12-20T09:10:15;100946.09;;;8.01;86.42
57600;BME280;43426;43.594;24.334;2023-12-20T09:12:41;100935.94;;;8.51;85.90
57600;BME280;43426;43.594;24.334;2023-12-20T09:15:07;100927.53;;;8.90;82.21
57600;BME280;43426;43.594;24.334;2023-12-20T09:17:33;100925.69;;;9.09;78.15
57600;BME280;43426;43.594;24.334;2023-12-20T09:19:58;100914.03;;;8.64;77.33
57600;BME280;43426;43.594;24.334;2023-12-20T09:22:25;100903.47;;;8.34;79.25
57600;BME280;43426;43.594;24.334;2023-12-20T09:24:50;100899.63;;;8.19;81.14
57600;BME280;43426;43.594;24.334;2023-12-20T09:27:15;100895.66;;;7.95;82.02
57600;BME280;43426;43.594;24.334;2023-12-20T09:29:41;100895.78;;;7.76;82.79
57600;BME280;43426;43.594;24.334;2023-12-20T09:32:06;100883.56;;;7.54;83.85
57600;BME280;43426;43.594;24.334;2023-12-20T09:34:31;100892.09;;;7.39;84.90
57600;BME280;43426;43.594;24.334;2023-12-20T09:36:57;100889.03;;;7.34;86.11
57600;BME280;43426;43.594;24.334;2023-12-20T09:39:22;100881.25;;;7.31;87.08
57600;BME280;43426;43.594;24.334;2023-12-20T09:42:06;100878.41;;;7.42;86.28
57600;BME280;43426;43.594;24.334;2023-12-20T09:44:32;100871.97;;;7.53;86.64
57600;BME280;43426;43.594;24.334;2023-12-20T09:47:04;100867.97;;;7.67;87.01
57600;BME280;43426;43.594;24.334;2023-12-20T09:49:29;100875.06;;;7.86;85.63
57600;BME280;43426;43.594;24.334;2023-12-20T09:51:55;100858.06;;;7.95;84.35
57600;BME280;43426;43.594;24.334;2023-12-20T09:54:21;100855.16;;;8.07;85.59
57600;BME280;43426;43.594;24.334;2023-12-20T09:56:47;100854.16;;;8.08;85.58
57600;BME280;43426;43.594;24.334;2023-12-20T09:59:13;100842.94;;;8.12;84.95
57600;BME280;43426;43.594;24.334;2023-12-20T10:01:42;100832.91;;;8.32;84.40
57600;BME280;43426;43.594;24.334;2023-12-20T10:04:08;100825.59;;;8.61;83.92
57600;BME280;43426;43.594;24.334;2023-12-20T10:06:52;100821.13;;;8.69;81.92
57600;BME280;43426;43.594;24.334;2023-12-20T10:09:17;100807.41;;;8.55;81.94
57600;BME280;43426;43.594;24.334;2023-12-20T10:11:43;100808.16;;;8.91;81.82
57600;BME280;43426;43.594;24.334;2023-12-20T10:14:10;100812.97;;;8.79;80.83
57600;BME280;43426;43.594;24.334;2023-12-20T10:16:35;100804.38;;;8.58;82.01
57600;BME280;43426;43.594;24.334;2023-12-20T10:19:01;100806.19;;;8.49;81.70
57600;BME280;43426;43.594;24.334;2023-12-20T10:21:26;100804.72;;;8.55;81.21
57600;BME280;43426;43.594;24.334;2023-12-20T10:23:52;100806.97;;;8.67;81.60
57600;BME280;43426;43.594;24.334;2023-12-20T10:26:24;100797.91;;;8.68;80.97
57600;BME280;43426;43.594;24.334;2023-12-20T10:28:53;100803.06;;;8.62;82.11
57600;BME280;43426;43.594;24.334;2023-12-20T10:31:31;100791.72;;;8.50;81.57
57600;BME280;43426;43.594;24.334;2023-12-20T10:33:58;100778.97;;;8.34;83.87
57600;BME280;43426;43.594;24.334;2023-12-20T10:36:24;100779.59;;;8.46;84.03
57600;BME280;43426;43.594;24.334;2023-12-20T10:38:51;100776.06;;;8.72;81.69
57600;BME280;43426;43.594;24.334;2023-12-20T10:41:17;100767.22;;;9.06;80.13
57600;BME280;43426;43.594;24.334;2023-12-20T10:43:47;100768.94;;;9.66;79.20
57600;BME280;43426;43.594;24.334;2023-12-20T10:46:12;100764.97;;;10.11;75.42
57600;BME280;43426;43.594;24.334;2023-12-20T10:48:37;100757.72;;;10.03;74.53
57600;BME280;43426;43.594;24.334;2023-12-20T10:51:04;100748.25;;;9.83;73.98
57600;BME280;43426;43.594;24.334;2023-12-20T10:53:30;100754.97;;;9.70;75.45
57600;BME280;43426;43.594;24.334;2023-12-20T10:55:55;100752.44;;;9.77;74.45
57600;BME280;43426;43.594;24.334;2023-12-20T10:58:24;100752.25;;;9.70;74.93
57600;BME280;43426;43.594;24.334;2023-12-20T11:00:49;100745.56;;;9.91;73.92
57600;BME280;43426;43.594;24.334;2023-12-20T11:03:17;100734.63;;;10.01;74.19
57600;BME280;43426;43.594;24.334;2023-12-20T11:05:49;100737.47;;;9.91;75.35
57600;BME280;43426;43.594;24.334;2023-12-20T11:13:32;100736.84;;;10.30;74.82
57600;BME280;43426;43.594;24.334;2023-12-20T11:16:01;100722.69;;;10.45;75.55
57600;BME280;43426;43.594;24.334;2023-12-20T11:18:31;100711.22;;;10.43;74.64
57600;BME280;43426;43.594;24.334;2023-12-20T11:21:00;100704.81;;;10.35;76.05
57600;BME280;43426;43.594;24.334;2023-12-20T11:23:26;100704.59;;;10.62;74.80
57600;BME280;43426;43.594;24.334;2023-12-20T11:25:52;100708.38;;;10.44;75.11
57600;BME280;43426;43.594;24.334;2023-12-20T11:28:22;100697.75;;;10.34;75.06
57600;BME280;43426;43.594;24.334;2023-12-20T11:30:49;100708.00;;;9.81;78.47
57600;BME280;43426;43.594;24.334;2023-12-20T11:33:15;100698.91;;;9.74;78.72
57600;BME280;43426;43.594;24.334;2023-12-20T11:35:41;100697.72;;;9.68;78.22
57600;BME280;43426;43.594;24.334;2023-12-20T11:38:08;100700.72;;;9.49;79.19
57600;BME280;43426;43.594;24.334;2023-12-20T11:40:34;100691.28;;;9.45;79.86
57600;BME280;43426;43.594;24.334;2023-12-20T11:42:59;100691.31;;;9.61;79.57
57600;BME280;43426;43.594;24.334;2023-12-20T11:45:25;100682.22;;;9.62;79.23
57600;BME280;43426;43.594;24.334;2023-12-20T11:47:51;100678.31;;;9.57;79.11
57600;BME280;43426;43.594;24.334;2023-12-20T11:50:17;100668.06;;;9.60;79.97
57600;BME280;43426;43.594;24.334;2023-12-20T11:52:42;100673.81;;;9.74;79.01
57600;BME280;43426;43.594;24.334;2023-12-20T11:55:08;100668.44;;;10.07;77.67
57600;BME280;43426;43.594;24.334;2023-12-20T11:57:33;100666.22;;;10.43;76.43
57600;BME280;43426;43.594;24.334;2023-12-20T11:59:59;100650.28;;;11.04;73.85
57600;BME280;43426;43.594;24.334;2023-12-20T12:02:24;100641.06;;;11.53;72.20
57600;BME280;43426;43.594;24.334;2023-12-20T12:04:49;100636.78;;;12.05;68.39
57600;BME280;43426;43.594;24.334;2023-12-20T12:07:18;100646.28;;;12.01;68.53
57600;BME280;43426;43.594;24.334;2023-12-20T12:09:43;100630.59;;;11.73;68.17
57600;BME280;43426;43.594;24.334;2023-12-20T12:12:09;100625.94;;;11.67;69.53
57600;BME280;43426;43.594;24.334;2023-12-20T12:14:34;100617.28;;;11.49;70.11
57600;BME280;43426;43.594;24.334;2023-12-20T12:17:02;100624.56;;;11.48;71.10
57600;BME280;43426;43.594;24.334;2023-12-20T12:19:27;100620.91;;;11.10;70.39
57600;BME280;43426;43.594;24.334;2023-12-20T12:24:44;100602.09;;;10.93;72.53
57600;BME280;43426;43.594;24.334;2023-12-20T12:27:10;100606.44;;;11.02;71.32
57600;BME280;43426;43.594;24.334;2023-12-20T12:29:36;100605.16;;;10.90;71.50
57600;BME280;43426;43.594;24.334;2023-12-20T12:32:05;100607.34;;;10.55;72.22
57600;BME280;43426;43.594;24.334;2023-12-20T12:34:31;100602.16;;;10.29;73.85
57600;BME280;43426;43.594;24.334;2023-12-20T12:36:56;100601.31;;;10.28;74.87